Vernon, Colorado
Current Conditions -  °F | °C
As of 7:55 PM on Sunday 23 Nov 2014 (Local Time) from K2V5 Reporting Station
Clear Clear  
Wind Chill: 20°   Ceiling: Unl
Heat Index: 29°   Visibility: 10mi
Dew Point: 11°   Wind: 10mph
Humidity: 47%   Direction: 280°W
Pressure: 29.83"   Gusts: NA
Location:  39.95°N, 102.32°W
Report Text: K2V5 240255Z AUTO 28009KT 10SM CLR M01/M11 A2983 RMK AO2 T10151115
Loading
Personal Weather Stations






























Interactive Weather Map New forecast layout! Learn more

10-Day Weather Forecast

Advertisements
Track Severe Weather on mobile